< < Back
Terminal Aerodrome Forecast


Current Version              Previous Versions:   1  2  3  4  5  6  7  8  9  

Terminal Aerodrome Forecast

763
FTUS44 KBMX 010520
TAFBHM
TAF
KBHM 010520Z 0106/0206 04006KT P6SM SKC
     FM011500 03011G20KT P6SM SKC
     FM012300 02009KT P6SM SKC=



Latest METAR

263
SAUS70 KWBC 012156
MTRBHM
METAR KBHM 012153Z 01012KT 10SM FEW090 34/13 A2992 RMK AO2 SLP123
T03440133


USA.gov is the U.S. government's official web portal to all federal, state and local government web resources and services.